This is the latest recevied weather packets stored in our database for station/object KK4XZ. If no packets are shown the sender has not sent any weather packets the latest 10 day(s).
| Time | Temp. | Humidity | Pressure | Rain* | Wind** | Luminosity | Snow |
|---|---|---|---|---|---|---|---|
| 1778013920 | 23.33° C | 61% | 1017 hPa | 0 mm | - | - | - |
| 1778013335 | 23.89° C | 60% | 1017 hPa | 0 mm | - | - | - |
| 1778012730 | 23.33° C | 61% | 1016.9 hPa | 0 mm | - | - | - |
| 1778012126 | 23.89° C | 59% | 1016.9 hPa | 0 mm | - | - | - |
| 1778011521 | 23.33° C | 59% | 1017.1 hPa | 0 mm | - | - | - |
| 1778010937 | 24.44° C | 57% | 1017.3 hPa | 0 mm | - | - | - |
| 1778010331 | 23.89° C | 58% | 1017.5 hPa | 0 mm | - | - | - |
| 1778009726 | 23.89° C | 57% | 1017.8 hPa | 0 mm | - | - | - |
| 1778009122 | 23.89° C | 58% | 1017.8 hPa | 0 mm | - | - | - |
| 1778008517 | 23.89° C | 56% | 1017.8 hPa | 0 mm | - | - | - |
| 1778007932 | 23.89° C | 58% | 1017.9 hPa | 0 mm | - | - | - |
| 1778007327 | 24.44° C | 58% | 1017.8 hPa | 0 mm | - | - | - |
| 1778006723 | 24.44° C | 58% | 1017.7 hPa | 0 mm | - | - | - |
| 1778006118 | 24.44° C | 58% | 1018 hPa | 0 mm | - | - | - |
| 1778005533 | 23.33° C | 61% | 1018.1 hPa | 0 mm | - | - | - |
| 1778004929 | 23.33° C | 59% | 1018.2 hPa | 0 mm | - | - | - |
| 1778004323 | 23.89° C | 60% | 1018.1 hPa | 0 mm | - | - | - |
| 1778003718 | 23.33° C | 62% | 1018.3 hPa | 0 mm | - | - | - |
| 1778003133 | 23.33° C | 60% | 1018.4 hPa | 0 mm | - | - | - |
| 1778002528 | 23.89° C | 58% | 1018.2 hPa | 0 mm | - | - | - |
| 1778001923 | 23.33° C | 57% | 1018.5 hPa | 0 mm | - | - | - |
| 1778001319 | 23.89° C | 57% | 1018.5 hPa | 0 mm | - | - | - |
| 1778000734 | 23.89° C | 56% | 1018.7 hPa | 0 mm | - | - | - |
| 1778000129 | 23.89° C | 57% | 1018.6 hPa | 0 mm | - | - | - |
| 1777999524 | 23.33° C | 57% | 1018.7 hPa | 0 mm | - | - | - |
* Rain latest hour (hover to see other rain measurements)
** Current wind speed in m/s (hover to see current wind gust speed)